createdAt,value
2019-03-03T00:00:59.310Z,8.91
2019-03-03T00:06:03.838Z,8.91
2019-03-03T00:08:33.096Z,8.94
2019-03-03T00:11:02.363Z,9.09
2019-03-03T00:13:50.558Z,8.96
2019-03-03T00:16:59.278Z,8.99
2019-03-03T00:19:28.849Z,9.00
2019-03-03T00:21:58.322Z,9.04
2019-03-03T00:24:27.572Z,9.10
2019-03-03T00:26:57.116Z,9.04
2019-03-03T00:29:26.367Z,9.05
2019-03-03T00:31:55.583Z,9.00
2019-03-03T00:34:24.809Z,8.93
2019-03-03T00:37:12.952Z,8.88
2019-03-03T00:40:01.124Z,8.92
2019-03-03T00:42:49.816Z,8.94
2019-03-03T00:48:34.246Z,8.97
2019-03-03T00:51:14.965Z,8.91
2019-03-03T00:54:03.177Z,8.89
2019-03-03T00:56:37.245Z,8.89
2019-03-03T00:59:25.435Z,8.86
2019-03-03T01:02:13.847Z,9.00
2019-03-03T01:05:01.995Z,8.97
2019-03-03T01:07:50.449Z,8.91
2019-03-03T01:10:38.588Z,8.85
2019-03-03T01:13:27.039Z,8.87
2019-03-03T01:16:15.219Z,8.83
2019-03-03T01:19:24.469Z,8.78
2019-03-03T01:22:13.154Z,8.82
2019-03-03T01:25:01.288Z,8.70
2019-03-03T01:27:30.475Z,8.54
2019-03-03T01:29:59.790Z,8.51
2019-03-03T01:32:29.073Z,8.47
2019-03-03T01:34:58.607Z,8.40
2019-03-03T01:37:28.085Z,8.31
2019-03-03T01:39:57.342Z,8.33
2019-03-03T01:42:26.555Z,8.31
2019-03-03T01:44:56.227Z,8.34
2019-03-03T01:47:25.505Z,8.31
2019-03-03T01:49:54.777Z,8.31
2019-03-03T01:52:24.014Z,8.39
2019-03-03T01:54:53.225Z,8.46
2019-03-03T01:57:22.450Z,8.53
2019-03-03T01:59:51.733Z,8.65
2019-03-03T02:02:20.943Z,8.51
2019-03-03T02:04:50.452Z,8.60
2019-03-03T02:07:19.685Z,8.67
2019-03-03T02:09:49.047Z,8.60
2019-03-03T02:12:18.265Z,8.58
2019-03-03T02:14:47.501Z,8.75
2019-03-03T02:17:16.770Z,8.70
2019-03-03T02:19:45.974Z,8.84
2019-03-03T02:22:15.480Z,8.65
2019-03-03T02:24:44.703Z,8.68
2019-03-03T02:27:13.996Z,8.85
2019-03-03T02:29:43.223Z,8.90
2019-03-03T02:32:12.502Z,9.11
2019-03-03T02:34:41.741Z,9.22
2019-03-03T02:37:10.998Z,9.21
2019-03-03T02:39:40.222Z,9.15
2019-03-03T02:42:09.452Z,9.11
2019-03-03T02:44:38.779Z,9.25
2019-03-03T02:47:08.086Z,9.27
2019-03-03T02:49:37.294Z,9.28
2019-03-03T02:52:06.548Z,9.49
2019-03-03T02:54:35.801Z,9.50
2019-03-03T02:57:05.074Z,9.41
2019-03-03T02:59:34.302Z,9.55
2019-03-03T03:04:43.121Z,9.49
2019-03-03T03:07:20.199Z,9.45
2019-03-03T03:10:08.612Z,9.50
2019-03-03T03:12:56.754Z,9.53
2019-03-03T03:15:40.484Z,9.60
2019-03-03T03:18:27.875Z,9.59
2019-03-03T03:21:16.310Z,9.58
2019-03-03T03:24:04.433Z,9.62
2019-03-03T03:26:52.616Z,9.74
2019-03-03T03:29:40.786Z,9.61
2019-03-03T03:32:28.972Z,9.60
2019-03-03T03:35:17.099Z,9.51
2019-03-03T03:38:05.557Z,9.59
2019-03-03T03:43:47.445Z,9.57
2019-03-03T03:46:35.601Z,9.60
2019-03-03T03:49:23.774Z,9.62
2019-03-03T03:52:11.962Z,9.67
2019-03-03T03:55:00.233Z,9.71
2019-03-03T03:57:49.990Z,9.65
2019-03-03T04:00:38.118Z,9.62
2019-03-03T04:03:26.276Z,9.58
2019-03-03T04:06:03.123Z,9.73
2019-03-03T04:08:38.037Z,9.71
2019-03-03T04:11:15.474Z,9.72
2019-03-03T04:13:57.172Z,9.73
2019-03-03T04:16:45.333Z,9.70
2019-03-03T04:19:28.900Z,9.77
2019-03-03T04:22:17.100Z,9.81
2019-03-03T04:25:05.233Z,9.79
2019-03-03T04:27:53.360Z,9.78
2019-03-03T04:30:41.489Z,9.84
2019-03-03T04:33:29.734Z,9.87
2019-03-03T04:36:14.367Z,9.76
2019-03-03T04:39:02.514Z,9.76
2019-03-03T04:41:50.678Z,9.71
2019-03-03T04:44:38.798Z,9.72
2019-03-03T04:47:26.938Z,9.78
2019-03-03T04:50:15.106Z,9.67
2019-03-03T04:53:03.289Z,9.73
2019-03-03T04:55:51.711Z,9.80
2019-03-03T04:58:39.856Z,9.81
2019-03-03T05:01:27.994Z,9.75
2019-03-03T05:04:16.134Z,9.83
2019-03-03T05:07:04.280Z,9.75
2019-03-03T05:09:52.446Z,9.77
2019-03-03T05:12:42.417Z,9.84
2019-03-03T05:15:49.625Z,9.82
2019-03-03T05:18:38.037Z,9.79
2019-03-03T05:21:07.573Z,9.83
2019-03-03T05:23:36.848Z,9.83
2019-03-03T05:26:06.348Z,9.82
2019-03-03T05:28:35.934Z,9.80
2019-03-03T05:31:05.173Z,9.78
2019-03-03T05:33:34.397Z,9.74
2019-03-03T05:36:03.632Z,9.79
2019-03-03T05:38:32.917Z,9.80
2019-03-03T05:41:02.121Z,9.71
2019-03-03T05:43:31.714Z,9.75
2019-03-03T05:46:00.932Z,9.73
2019-03-03T05:48:30.178Z,9.79
2019-03-03T05:50:59.766Z,9.87
2019-03-03T05:53:29.019Z,9.76
2019-03-03T05:55:58.266Z,9.76
2019-03-03T05:58:27.500Z,9.84
2019-03-03T06:00:56.718Z,9.88
2019-03-03T06:03:25.979Z,9.84
2019-03-03T06:05:55.238Z,9.89
2019-03-03T06:08:25.200Z,9.81
2019-03-03T06:10:54.414Z,9.83
2019-03-03T06:13:23.722Z,9.94
2019-03-03T06:15:52.946Z,9.94
2019-03-03T06:18:22.492Z,9.89
2019-03-03T06:20:52.200Z,9.83
2019-03-03T06:23:21.483Z,9.79
2019-03-03T06:25:50.831Z,9.84
2019-03-03T06:28:20.139Z,9.80
2019-03-03T06:30:49.381Z,9.89
2019-03-03T06:33:18.681Z,9.91
2019-03-03T06:35:48.204Z,9.87
2019-03-03T06:38:17.407Z,9.91
2019-03-03T06:40:46.685Z,9.89
2019-03-03T06:43:15.937Z,9.91
2019-03-03T06:45:45.215Z,9.96
2019-03-03T06:48:14.535Z,10.00
2019-03-03T06:50:43.770Z,10.02
2019-03-03T06:53:13.064Z,10.01
2019-03-03T06:55:42.301Z,10.12
2019-03-03T06:58:11.565Z,10.15
2019-03-03T07:00:41.348Z,10.15
2019-03-03T07:03:10.600Z,10.17
2019-03-03T07:05:39.852Z,10.22
2019-03-03T07:08:09.102Z,10.22
2019-03-03T07:10:38.624Z,10.28
2019-03-03T07:13:07.907Z,10.33
2019-03-03T07:15:37.541Z,10.35
2019-03-03T07:18:06.786Z,10.38
2019-03-03T07:20:36.059Z,10.46
2019-03-03T07:23:05.796Z,10.49
2019-03-03T07:25:35.023Z,10.50
2019-03-03T07:28:04.266Z,10.53
2019-03-03T07:30:33.520Z,10.54
2019-03-03T07:33:21.704Z,10.63
2019-03-03T07:38:39.950Z,10.70
2019-03-03T07:41:09.183Z,10.73
2019-03-03T07:43:38.423Z,10.77
2019-03-03T07:46:07.805Z,10.79
2019-03-03T07:48:37.329Z,10.79
2019-03-03T07:51:06.575Z,10.82
2019-03-03T07:53:35.816Z,10.88
2019-03-03T07:56:05.062Z,10.89
2019-03-03T07:58:41.654Z,10.92
2019-03-03T08:01:10.871Z,11.00
2019-03-03T08:03:40.135Z,11.07
2019-03-03T08:06:09.359Z,11.03
2019-03-03T08:08:38.909Z,11.06
2019-03-03T08:13:56.924Z,11.01
2019-03-03T08:16:26.471Z,11.00
2019-03-03T08:18:55.836Z,11.03
2019-03-03T08:21:25.051Z,11.03
2019-03-03T08:23:56.583Z,11.08
2019-03-03T08:26:25.881Z,11.09
2019-03-03T08:28:56.162Z,11.15
2019-03-03T08:31:25.809Z,11.16
2019-03-03T08:33:55.086Z,11.20
2019-03-03T08:36:24.298Z,11.17
2019-03-03T08:38:53.537Z,11.14
2019-03-03T08:41:23.020Z,11.17
2019-03-03T08:44:05.707Z,11.17
2019-03-03T08:46:53.923Z,11.14
2019-03-03T08:49:31.471Z,11.15
2019-03-03T08:52:19.945Z,11.15
2019-03-03T08:55:03.456Z,11.15
2019-03-03T08:58:07.578Z,11.10
2019-03-03T09:00:55.835Z,11.13
2019-03-03T09:03:33.326Z,11.14
2019-03-03T09:06:21.504Z,11.25
2019-03-03T09:09:09.990Z,11.22
2019-03-03T09:11:58.175Z,11.32
2019-03-03T09:14:46.329Z,11.31
2019-03-03T09:17:34.876Z,11.28
2019-03-03T09:20:23.427Z,11.31
2019-03-03T09:23:11.559Z,11.31
2019-03-03T09:25:59.758Z,11.32
2019-03-03T09:28:47.866Z,11.35
2019-03-03T09:31:36.038Z,11.41
2019-03-03T09:34:24.549Z,11.41
2019-03-03T09:37:12.734Z,11.40
2019-03-03T09:40:09.079Z,11.54
2019-03-03T09:42:50.824Z,11.66
2019-03-03T09:45:38.967Z,11.72
2019-03-03T09:48:27.511Z,11.75
2019-03-03T09:51:16.148Z,11.78
2019-03-03T09:53:53.726Z,11.86
2019-03-03T09:56:41.894Z,11.93
2019-03-03T09:59:30.209Z,11.88
2019-03-03T10:02:18.376Z,11.87
2019-03-03T10:05:06.492Z,11.88
2019-03-03T10:07:55.017Z,11.97
2019-03-03T10:10:43.174Z,11.88
2019-03-03T10:13:31.396Z,11.85
2019-03-03T10:16:19.870Z,11.87
2019-03-03T10:19:08.611Z,11.75
2019-03-03T10:21:57.152Z,11.71
2019-03-03T10:24:45.655Z,11.68
2019-03-03T10:27:34.072Z,11.60
2019-03-03T10:30:22.240Z,11.59
2019-03-03T10:33:10.471Z,11.65
2019-03-03T10:35:58.614Z,11.69
2019-03-03T10:38:46.861Z,11.82
2019-03-03T10:44:42.137Z,12.01
2019-03-03T10:47:30.315Z,12.02
2019-03-03T10:50:18.558Z,11.95
2019-03-03T10:52:54.283Z,11.95
2019-03-03T10:55:42.445Z,11.90
2019-03-03T10:58:30.595Z,11.95
2019-03-03T11:01:18.746Z,11.97
2019-03-03T11:04:07.160Z,11.99
2019-03-03T11:06:55.255Z,11.97
2019-03-03T11:09:40.716Z,11.94
2019-03-03T11:12:29.290Z,11.88
2019-03-03T11:15:18.789Z,11.78
2019-03-03T11:18:08.125Z,11.90
2019-03-03T11:20:56.353Z,11.70
2019-03-03T11:23:44.492Z,11.59
2019-03-03T11:26:32.831Z,11.67
2019-03-03T11:29:08.452Z,11.75
2019-03-03T11:31:56.547Z,11.87
2019-03-03T11:34:44.723Z,11.96
2019-03-03T11:37:32.838Z,12.07
2019-03-03T11:40:21.829Z,12.14
2019-03-03T11:43:09.949Z,12.11
2019-03-03T11:45:58.096Z,12.23
2019-03-03T11:48:46.534Z,12.22
2019-03-03T11:51:35.415Z,12.26
2019-03-03T11:54:10.369Z,12.30
2019-03-03T11:56:58.495Z,12.42
2019-03-03T11:59:43.504Z,12.50
2019-03-03T12:02:32.728Z,12.59
2019-03-03T12:05:10.311Z,12.80
2019-03-03T12:07:58.423Z,13.15
2019-03-03T12:10:46.589Z,13.22
2019-03-03T12:13:34.966Z,13.37
2019-03-03T12:19:19.356Z,13.26
2019-03-03T12:22:07.813Z,13.00
2019-03-03T12:24:55.933Z,13.07
2019-03-03T12:27:44.206Z,13.00
2019-03-03T12:30:33.113Z,12.90
2019-03-03T12:33:08.699Z,12.84
2019-03-03T12:35:56.825Z,12.63
2019-03-03T12:38:45.272Z,12.47
2019-03-03T12:41:33.461Z,12.42
2019-03-03T12:44:21.578Z,12.38
2019-03-03T12:47:09.769Z,12.36
2019-03-03T12:49:57.889Z,12.30
2019-03-03T12:52:37.441Z,12.23
2019-03-03T12:55:25.624Z,12.22
2019-03-03T12:58:13.754Z,12.26
2019-03-03T13:00:50.866Z,12.27
2019-03-03T13:03:38.990Z,12.34
2019-03-03T13:06:30.443Z,12.31
2019-03-03T13:09:19.154Z,12.40
2019-03-03T13:15:02.293Z,12.43
2019-03-03T13:17:50.430Z,12.50
2019-03-03T13:20:38.647Z,12.55
2019-03-03T13:23:26.794Z,12.52
2019-03-03T13:26:06.697Z,12.48
2019-03-03T13:28:55.565Z,12.57
2019-03-03T13:31:43.758Z,12.56
2019-03-03T13:34:32.152Z,12.53
2019-03-03T13:37:39.365Z,12.56
2019-03-03T13:40:28.484Z,12.58
2019-03-03T13:42:56.728Z,12.55
2019-03-03T13:46:05.711Z,12.51
2019-03-03T13:48:34.942Z,12.46
2019-03-03T13:51:04.311Z,12.46
2019-03-03T13:53:33.587Z,12.50
2019-03-03T13:56:02.840Z,12.46
2019-03-03T13:58:32.397Z,12.49
2019-03-03T14:01:01.840Z,12.41
2019-03-03T14:03:31.091Z,12.37
2019-03-03T14:06:00.331Z,12.34
2019-03-03T14:08:29.639Z,12.34
2019-03-03T14:10:58.896Z,12.34
2019-03-03T14:13:28.127Z,12.29
2019-03-03T14:15:57.360Z,12.27
2019-03-03T14:18:26.602Z,12.24
2019-03-03T14:20:56.537Z,12.21
2019-03-03T14:23:25.788Z,12.25
2019-03-03T14:25:55.054Z,12.24
2019-03-03T14:28:24.319Z,12.25
2019-03-03T14:30:54.838Z,12.34
2019-03-03T14:33:24.183Z,12.29
2019-03-03T14:35:53.417Z,12.34
2019-03-03T14:38:42.068Z,12.43
2019-03-03T14:41:30.366Z,12.43
2019-03-03T14:43:59.621Z,12.41
2019-03-03T14:46:30.275Z,12.41
2019-03-03T14:48:59.616Z,12.38
2019-03-03T14:51:28.837Z,12.38
2019-03-03T15:00:34.900Z,12.33
2019-03-03T15:03:06.555Z,12.28
2019-03-03T15:08:44.541Z,12.28
2019-03-03T15:14:24.671Z,12.18
2019-03-03T15:17:13.579Z,12.11
2019-03-03T15:19:42.835Z,12.09
2019-03-03T15:22:12.502Z,12.10
2019-03-03T15:24:42.053Z,12.22
2019-03-03T15:27:30.927Z,12.27
2019-03-03T15:30:00.278Z,12.32
2019-03-03T15:32:29.585Z,12.31
2019-03-03T15:34:59.230Z,12.29
2019-03-03T15:37:28.571Z,12.29
2019-03-03T15:39:58.394Z,12.36
2019-03-03T15:42:27.914Z,12.41
2019-03-03T15:44:57.224Z,12.34
2019-03-03T15:47:26.475Z,12.38
2019-03-03T15:50:35.141Z,12.40
2019-03-03T15:53:04.487Z,12.30
2019-03-03T16:03:40.476Z,12.37
2019-03-03T16:06:09.739Z,12.38
2019-03-03T16:08:39.349Z,12.40
2019-03-03T16:11:09.493Z,12.40
2019-03-03T16:13:38.720Z,12.42
2019-03-03T16:18:44.161Z,12.40
2019-03-03T16:21:13.450Z,12.50
2019-03-03T16:23:42.995Z,12.41
2019-03-03T16:26:12.253Z,12.37
2019-03-03T16:28:41.510Z,12.49
2019-03-03T16:31:11.118Z,12.42
2019-03-03T16:33:40.424Z,12.41
2019-03-03T16:36:09.997Z,12.30
2019-03-03T16:38:39.229Z,12.30
2019-03-03T16:41:08.530Z,12.36
2019-03-03T16:43:37.816Z,12.38
2019-03-03T16:46:07.475Z,12.33
2019-03-03T16:48:36.727Z,12.30
2019-03-03T16:53:41.925Z,12.34
2019-03-03T16:56:31.028Z,12.26
2019-03-03T16:59:00.646Z,12.36
2019-03-03T17:01:30.218Z,12.26
2019-03-03T17:04:00.684Z,12.24
2019-03-03T17:06:30.287Z,12.15
2019-03-03T17:08:59.633Z,12.17
2019-03-03T17:11:29.161Z,12.10
2019-03-03T17:13:58.730Z,12.16
2019-03-03T17:16:28.054Z,12.17
2019-03-03T17:18:57.252Z,12.10
2019-03-03T17:21:26.782Z,12.22
2019-03-03T17:23:56.005Z,12.18
2019-03-03T17:26:25.322Z,12.22
2019-03-03T17:28:54.536Z,12.16
2019-03-03T17:31:24.138Z,12.20
2019-03-03T17:33:53.736Z,12.06
2019-03-03T17:36:22.995Z,12.08
2019-03-03T17:38:52.225Z,12.12
2019-03-03T17:41:21.591Z,12.14
2019-03-03T17:43:50.974Z,12.15
2019-03-03T17:46:20.225Z,12.12
2019-03-03T17:49:27.494Z,12.08
2019-03-03T17:51:56.790Z,12.09
2019-03-03T17:54:26.312Z,12.17
2019-03-03T17:56:55.938Z,12.08
2019-03-03T17:59:25.261Z,12.12
2019-03-03T18:02:13.572Z,12.05
2019-03-03T18:04:42.766Z,11.96
2019-03-03T18:07:12.300Z,11.93
2019-03-03T18:09:41.538Z,11.94
2019-03-03T18:12:11.529Z,11.88
2019-03-03T18:14:41.075Z,11.85
2019-03-03T18:17:10.365Z,11.84
2019-03-03T18:19:40.286Z,11.92
2019-03-03T18:22:09.611Z,11.94
2019-03-03T18:24:39.552Z,12.01
2019-03-03T18:27:09.376Z,12.08
2019-03-03T18:29:38.578Z,12.08
2019-03-03T18:32:07.946Z,12.04
2019-03-03T18:34:37.156Z,11.98
2019-03-03T18:37:25.518Z,12.06
2019-03-03T18:39:55.061Z,11.94
2019-03-03T18:42:24.701Z,11.97
2019-03-03T18:44:53.953Z,12.02
2019-03-03T18:47:23.511Z,12.11
2019-03-03T18:49:53.050Z,12.10
2019-03-03T18:52:22.904Z,12.10
2019-03-03T18:54:52.384Z,12.13
2019-03-03T18:57:21.673Z,12.06
2019-03-03T18:59:51.352Z,12.08
2019-03-03T19:02:39.689Z,12.03
2019-03-03T19:05:09.382Z,11.95
2019-03-03T19:07:38.629Z,11.96
2019-03-03T19:10:10.362Z,11.91
2019-03-03T19:12:39.682Z,11.85
2019-03-03T19:15:11.289Z,11.93
2019-03-03T19:17:41.326Z,11.98
2019-03-03T19:20:11.317Z,12.05
2019-03-03T19:26:08.531Z,12.07
2019-03-03T19:28:38.154Z,11.98
2019-03-03T19:31:07.388Z,12.03
2019-03-03T19:33:43.481Z,12.01
2019-03-03T19:36:12.718Z,12.00
2019-03-03T19:38:42.522Z,11.98
2019-03-03T19:41:11.723Z,12.00
2019-03-03T19:43:40.926Z,12.01
2019-03-03T19:46:10.335Z,12.02
2019-03-03T19:48:39.683Z,11.93
2019-03-03T19:51:08.932Z,11.86
2019-03-03T19:53:38.174Z,11.81
2019-03-03T19:56:07.833Z,11.81
2019-03-03T19:58:37.065Z,11.70
2019-03-03T20:01:45.678Z,11.71
2019-03-03T20:04:15.528Z,11.87
2019-03-03T20:06:45.036Z,11.82
2019-03-03T20:12:09.633Z,11.86
2019-03-03T20:14:38.894Z,11.85
2019-03-03T20:17:08.075Z,11.92
2019-03-03T20:19:37.466Z,11.93
2019-03-03T20:22:06.776Z,11.86
2019-03-03T20:24:36.333Z,11.88
2019-03-03T20:27:05.981Z,11.87
2019-03-03T20:29:36.041Z,11.83
2019-03-03T20:32:05.745Z,11.79
2019-03-03T20:34:34.961Z,11.80
2019-03-03T20:37:05.235Z,11.75
2019-03-03T20:39:34.464Z,11.64
2019-03-03T20:42:04.345Z,11.70
2019-03-03T20:44:34.029Z,11.68
2019-03-03T20:47:03.586Z,11.74
2019-03-03T20:49:33.744Z,11.66
2019-03-03T20:52:15.310Z,11.64
2019-03-03T20:54:44.608Z,11.59
2019-03-03T20:57:33.265Z,11.62
2019-03-03T21:00:03.873Z,11.61
2019-03-03T21:02:33.699Z,11.67
2019-03-03T21:05:03.049Z,11.79
2019-03-03T21:07:32.296Z,11.84
2019-03-03T21:10:01.794Z,11.82
2019-03-03T21:12:31.080Z,11.93
2019-03-03T21:15:00.326Z,11.91
2019-03-03T21:17:30.642Z,11.85
2019-03-03T21:19:59.875Z,11.85
2019-03-03T21:22:29.263Z,11.79
2019-03-03T21:24:58.474Z,11.90
2019-03-03T21:27:27.697Z,11.85
2019-03-03T21:29:56.983Z,11.92
2019-03-03T21:32:26.350Z,12.02
2019-03-03T21:34:55.760Z,12.06
2019-03-03T21:37:25.523Z,12.03
2019-03-03T21:39:54.724Z,12.08
2019-03-03T21:42:24.003Z,12.12
2019-03-03T21:44:53.335Z,12.07
2019-03-03T21:47:22.593Z,12.22
2019-03-03T21:49:52.109Z,12.31
2019-03-03T21:52:27.414Z,12.40
2019-03-03T21:54:56.921Z,12.17
2019-03-03T21:57:26.219Z,12.06
2019-03-03T21:59:55.457Z,12.16
2019-03-03T22:02:24.762Z,12.11
2019-03-03T22:04:53.995Z,12.24
2019-03-03T22:07:23.656Z,12.21
2019-03-03T22:09:52.853Z,12.21
2019-03-03T22:12:22.486Z,12.21
2019-03-03T22:14:51.807Z,12.14
2019-03-03T22:17:21.059Z,12.31
2019-03-03T22:19:50.551Z,12.31
2019-03-03T22:22:20.107Z,12.37
2019-03-03T22:24:49.313Z,12.38
2019-03-03T22:27:18.607Z,12.44
2019-03-03T22:29:47.827Z,12.35
2019-03-03T22:32:17.372Z,12.29
2019-03-03T22:34:46.583Z,12.19
2019-03-03T22:37:15.803Z,12.11
2019-03-03T22:39:45.119Z,12.03
2019-03-03T22:42:14.321Z,11.98
2019-03-03T22:44:43.676Z,11.93
2019-03-03T22:47:13.240Z,12.05
2019-03-03T22:49:42.788Z,12.03
2019-03-03T22:52:31.454Z,12.04
2019-03-03T22:55:00.785Z,11.99
2019-03-03T22:57:30.288Z,11.91
2019-03-03T22:59:59.823Z,12.01
2019-03-03T23:02:29.039Z,11.97
2019-03-03T23:05:06.156Z,12.00
2019-03-03T23:08:13.576Z,12.04
2019-03-03T23:11:20.844Z,11.96
2019-03-03T23:14:12.397Z,11.79
2019-03-03T23:17:08.627Z,11.89
2019-03-03T23:19:59.769Z,11.97
2019-03-03T23:23:07.295Z,11.86
2019-03-03T23:25:55.592Z,11.96
2019-03-03T23:31:20.197Z,12.21
2019-03-03T23:33:49.699Z,12.17
2019-03-03T23:36:18.937Z,12.25
2019-03-03T23:38:48.144Z,12.28
2019-03-03T23:41:17.646Z,12.25
2019-03-03T23:43:46.882Z,12.37
2019-03-03T23:46:16.188Z,12.35
2019-03-03T23:48:45.702Z,12.28
2019-03-03T23:51:15.247Z,12.28
2019-03-03T23:53:44.884Z,12.40
2019-03-03T23:56:14.979Z,12.46
2019-03-03T23:58:44.456Z,12.50
